^^
Datos históricos de la estación: Murcia-Puente Tocinos
Diario Informe para Marzo 18, 2019 Unidades:  Métrico    Ingés   Ambas
Diario Semanal Mensual Anual
  Máxima: Mínima: Promedio:
Temperatura: 30.2 °C 20.4 °C 24.8 °C
Punto de rocio: 20.9 °C 16.8 °C 19.4 °C
Humedad: 93% 44.6% 75%
Velocidad viento: 14.8km/h 0km/h 5.7km/h
Racha viento: 25.9km/h - -
Viento- - SSE
Presión: 1014.4 hPa 1012.0 hPa -
Precipitación: 0.0 mm    
 
 
Tabla de datos para Marzo 18, 2019
Hora Temperatura Punto de rocio Presión Viento Velocidad viento Racha viento Humedad Intensidad lluvia(por hora) Nubes
00:04 22.9 °C 20.8 °C 1014.0 hPa Este 3.2 km/h 8 km/h 88% 0.0 mm
00:09 22.8 °C 20.7 °C 1013.8 hPa Este 3 km/h 4.8 km/h 88% 0.0 mm
00:14 22.8 °C 20.7 °C 1013.8 hPa Este 2.2 km/h 3.9 km/h 88% 0.0 mm
00:19 22.8 °C 20.9 °C 1013.8 hPa Este 1.8 km/h   88.9% 0.0 mm
00:24 22.7 °C 20.8 °C 1013.8 hPa Calm     89% 0.0 mm
00:29 22.7 °C 20.8 °C 1013.8 hPa Calm     89% 0.0 mm
00:34 22.7 °C 20.8 °C 1013.8 hPa Calm     89% 0.0 mm
00:39 22.6 °C 20.7 °C 1013.7 hPa Calm     89% 0.0 mm
00:44 22.6 °C 20.8 °C 1013.7 hPa Calm     89.5% 0.0 mm
00:49 22.6 °C 20.7 °C 1013.7 hPa Calm     89% 0.0 mm
00:54 22.6 °C 20.7 °C 1013.7 hPa Calm   7.4 km/h 89% 0.0 mm
00:59 22.6 °C 20.7 °C 1013.7 hPa SSO 0.9 km/h 8.4 km/h 89% 0.0 mm
01:04 22.6 °C 20.7 °C 1013.7 hPa Sur 3.9 km/h 8.4 km/h 89% 0.0 mm
01:09 22.6 °C 20.7 °C 1013.5 hPa SSE 4.1 km/h 9.3 km/h 89% 0.0 mm
01:14 22.6 °C 20.7 °C 1013.5 hPa SE 5 km/h 9.7 km/h 89% 0.0 mm
01:19 22.5 °C 20.6 °C 1013.5 hPa SSE 4.7 km/h 5.8 km/h 89% 0.0 mm
01:24 22.5 °C 20.6 °C 1013.5 hPa SSE 3.2 km/h 7.4 km/h 89% 0.0 mm
01:29 22.4 °C 20.5 °C 1013.5 hPa SSE 3.3 km/h 8 km/h 89% 0.0 mm
01:34 22.4 °C 20.5 °C 1013.5 hPa Sur 3.9 km/h 8 km/h 89% 0.0 mm
01:39 22.4 °C 20.5 °C 1013.5 hPa Sur 4 km/h 8 km/h 89% 0.0 mm
01:44 22.4 °C 20.5 °C 1013.5 hPa SSO 4.7 km/h 8 km/h 89% 0.0 mm
01:49 22.4 °C 20.5 °C 1013.5 hPa OSO 4.7 km/h 8 km/h 89% 0.0 mm
01:54 22.4 °C 20.5 °C 1013.5 hPa OSO 4.7 km/h 9.5 km/h 89% 0.0 mm
01:59 22.4 °C 20.5 °C 1013.5 hPa SO 5 km/h 11.1 km/h 89% 0.0 mm
02:04 22.4 °C 20.5 °C 1013.5 hPa SO 6.4 km/h 11.3 km/h 89% 0.0 mm
02:09 22.4 °C 20.5 °C 1013.4 hPa SO 6.5 km/h 11.3 km/h 89.2% 0.0 mm
02:14 22.4 °C 20.7 °C 1013.4 hPa SO 6.9 km/h 11.3 km/h 90% 0.0 mm
02:19 22.4 °C 20.7 °C 1013.4 hPa SO 6.7 km/h 11.3 km/h 90% 0.0 mm
02:24 22.4 °C 20.7 °C 1013.4 hPa SO 5.8 km/h 11.9 km/h 90% 0.0 mm
02:29 22.4 °C 20.6 °C 1013.4 hPa SO 6 km/h 11.3 km/h 90% 0.0 mm
02:34 22.3 °C 20.6 °C 1013.4 hPa SO 6.9 km/h 9.7 km/h 90% 0.0 mm
02:39 22.3 °C 20.6 °C 1013.3 hPa OSO 6.6 km/h 9.7 km/h 90% 0.0 mm
02:44 22.3 °C 20.6 °C 1013.3 hPa SO 5 km/h 8.4 km/h 90% 0.0 mm
02:49 22.3 °C 20.5 °C 1013.3 hPa OSO 4.8 km/h 8 km/h 90% 0.0 mm
02:54 22.3 °C 20.5 °C 1013.3 hPa SO 3.9 km/h 8 km/h 90% 0.0 mm
02:59 22.2 °C 20.5 °C 1013.3 hPa SSO 3.7 km/h 8 km/h 90% 0.0 mm
03:04 22.2 °C 20.5 °C 1013.3 hPa SE 3.2 km/h 8 km/h 90% 0.0 mm
03:09 22.2 °C 20.5 °C 1013.2 hPa SSE 3.5 km/h 8 km/h 90% 0.0 mm
03:14 22.1 °C 20.4 °C 1013.2 hPa Sur 4.7 km/h 8 km/h 90% 0.0 mm
03:19 22 °C 20.2 °C 1013.2 hPa SSO 4.7 km/h 8.4 km/h 90% 0.0 mm
03:24 21.9 °C 20.2 °C 1012.7 hPa Sur 5 km/h 8 km/h 90% 0.0 mm
03:29 21.9 °C 20.2 °C 1012.7 hPa Sur 4.9 km/h 8 km/h 90% 0.0 mm
03:34 21.9 °C 20.2 °C 1012.7 hPa Sur 4.7 km/h 6.4 km/h 90% 0.0 mm
03:39 21.9 °C 20.2 °C 1012.6 hPa SSO 4.2 km/h 5.6 km/h 90% 0.0 mm
03:44 21.9 °C 20.2 °C 1012.6 hPa OSO 2.2 km/h 5.6 km/h 90% 0.0 mm
03:49 21.8 °C 20.1 °C 1012.6 hPa Oeste 2.4 km/h 7.6 km/h 90% 0.0 mm
03:54 21.8 °C 20.2 °C 1012.6 hPa OSO 2.9 km/h 8 km/h 90.5% 0.0 mm
03:59 21.8 °C 20.2 °C 1012.6 hPa Oeste 3.3 km/h 8.4 km/h 91% 0.0 mm
04:04 21.7 °C 20.2 °C 1012.7 hPa Oeste 4.7 km/h 8.4 km/h 91% 0.0 mm
04:09 21.7 °C 20.2 °C 1012.7 hPa OSO 4.7 km/h 8 km/h 91% 0.0 mm
04:14 21.7 °C 20.2 °C 1012.7 hPa OSO 5 km/h 8 km/h 91% 0.0 mm
04:19 21.7 °C 20.2 °C 1012.7 hPa OSO 4.8 km/h 8 km/h 91% 0.0 mm
04:24 21.7 °C 20.2 °C 1012.6 hPa Oeste 3.9 km/h 8 km/h 91% 0.0 mm
04:29 21.7 °C 20.3 °C 1012.6 hPa OSO 3.9 km/h 8 km/h 91.9% 0.0 mm
04:34 21.6 °C 20.2 °C 1012.6 hPa OSO 3.9 km/h 8 km/h 92% 0.0 mm
04:39 21.6 °C 20.2 °C 1012.5 hPa OSO 3.7 km/h 6.4 km/h 92% 0.0 mm
04:44 21.6 °C 20.2 °C 1012.5 hPa Oeste 3.2 km/h 6.4 km/h 92% 0.0 mm
04:49 21.5 °C 20.2 °C 1012.5 hPa OSO 3 km/h 5.8 km/h 92% 0.0 mm
04:54 21.6 °C 20.2 °C 1012.5 hPa SSO 2.2 km/h 7.4 km/h 92% 0.0 mm
04:59 21.4 °C 20 °C 1012.5 hPa SSE 2.8 km/h 8 km/h 91.4% 0.0 mm
05:04 21.3 °C 19.8 °C 1012.5 hPa SSE 4.6 km/h 8 km/h 91.3% 0.0 mm
05:09 21.2 °C 19.8 °C 1012.4 hPa SSE 4.2 km/h 5.8 km/h 92% 0.0 mm
05:14 21.2 °C 19.8 °C 1012.4 hPa SSE 2.2 km/h 7.6 km/h 92% 0.0 mm
05:19 21.1 °C 19.7 °C 1012.7 hPa Sur 2.7 km/h 8 km/h 92% 0.0 mm
05:24 21.1 °C 19.7 °C 1012.7 hPa Sur 4.7 km/h 8 km/h 92% 0.0 mm
05:29 21.1 °C 19.9 °C 1012.7 hPa Sur 3.8 km/h 3.2 km/h 92.7% 0.0 mm
05:34 21.1 °C 19.9 °C 1012.7 hPa Calm   5.6 km/h 93% 0.0 mm
05:39 21 °C 19.9 °C 1012.5 hPa ONO 0.4 km/h 4.8 km/h 93% 0.0 mm
05:44 21 °C 19.8 °C 1012.5 hPa ONO 2.2 km/h 3.9 km/h 93% 0.0 mm
05:49 21 °C 19.8 °C 1012.5 hPa Oeste 1.9 km/h 4.7 km/h 93% 0.0 mm
05:54 21 °C 19.8 °C 1012.4 hPa Calm   7.4 km/h 93% 0.0 mm
05:59 21 °C 19.8 °C 1012.4 hPa Sur 0.9 km/h 8 km/h 93% 0.0 mm
06:04 21 °C 19.8 °C 1012.4 hPa Sur 3.9 km/h 11.1 km/h 93% 0.0 mm
06:09 20.9 °C 19.7 °C 1012.4 hPa SSE 4.3 km/h 11.3 km/h 93% 0.0 mm
06:14 20.8 °C 19.6 °C 1012.4 hPa Sur 6.4 km/h 11.1 km/h 93% 0.0 mm
06:19 20.8 °C 19.6 °C 1012.4 hPa Sur 6.7 km/h 11.3 km/h 93% 0.0 mm
06:24 20.7 °C 19.5 °C 1012.4 hPa Sur 7.6 km/h 11.9 km/h 93% 0.0 mm
06:29 20.7 °C 19.5 °C 1012.4 hPa Sur 7.6 km/h 11.3 km/h 93% 0.0 mm
06:34 20.7 °C 19.5 °C 1012.4 hPa SSO 7.6 km/h 11.3 km/h 93% 0.0 mm
06:39 20.7 °C 19.5 °C 1012.3 hPa SO 7.4 km/h 9.7 km/h 93% 0.0 mm
06:44 20.7 °C 19.5 °C 1012.3 hPa OSO 6.5 km/h 9.7 km/h 93% 0.0 mm
06:49 20.7 °C 19.5 °C 1012.4 hPa SO 6 km/h 8.4 km/h 93% 0.0 mm
06:54 20.8 °C 19.6 °C 1012.4 hPa SO 3.9 km/h 8 km/h 93% 0.0 mm
06:59 20.8 °C 19.6 °C 1012.4 hPa SO 3.7 km/h 8 km/h 93% 0.0 mm
07:04 20.8 °C 19.6 °C 1012.4 hPa SO 3.2 km/h 8.7 km/h 93% 0.0 mm
07:09 20.8 °C 19.6 °C 1012.4 hPa SSO 3.7 km/h 9.7 km/h 93% 0.0 mm
07:14 20.8 °C 19.5 °C 1012.4 hPa OSO 5.8 km/h 9.7 km/h 92.3% 0.0 mm
07:19 20.9 °C 19.6 °C 1012.4 hPa Oeste 5.5 km/h 8 km/h 92% 0.0 mm
07:24 20.8 °C 19.5 °C 1012.4 hPa Oeste 3.9 km/h 8 km/h 92% 0.0 mm
07:29 20.8 °C 19.4 °C 1012.4 hPa Oeste 3.9 km/h 7.6 km/h 92% 0.0 mm
07:34 20.7 °C 19.3 °C 1012.5 hPa Oeste 3.9 km/h 8 km/h 92% 0.0 mm
07:39 20.7 °C 19.3 °C 1012.5 hPa Oeste 4.1 km/h 8 km/h 92% 0.0 mm
07:44 20.6 °C 19.3 °C 1012.5 hPa Oeste 5 km/h 9.5 km/h 92% 0.0 mm
07:49 20.5 °C 19.2 °C 1012.7 hPa Oeste 5.2 km/h 11.1 km/h 92% 0.0 mm
07:54 20.4 °C 19.1 °C 1012.7 hPa OSO 6.4 km/h 11.3 km/h 92.5% 0.0 mm
07:59 20.4 °C 19.2 °C 1012.7 hPa OSO 6.3 km/h 10 km/h 93% 0.0 mm
08:04 20.4 °C 19.2 °C 1012.9 hPa SO 5.8 km/h 10 km/h 93% 0.0 mm
08:09 20.5 °C 19.3 °C 1012.9 hPa OSO 5.9 km/h 9.7 km/h 93% 0.0 mm
08:14 20.6 °C 19.4 °C 1012.9 hPa Oeste 6.4 km/h 8 km/h 92.5% 0.0 mm
08:19 20.6 °C 19.3 °C 1013.1 hPa Oeste 6 km/h 8 km/h 92% 0.0 mm
08:24 20.7 °C 19.3 °C 1013.1 hPa ONO 3.9 km/h 5.8 km/h 92% 0.0 mm
08:29 20.7 °C 19.3 °C 1013.1 hPa OSO 3.5 km/h 6.4 km/h 92% 0.0 mm
08:34 20.8 °C 19.4 °C 1013.1 hPa OSO 2.2 km/h 4.8 km/h 92% 0.0 mm
08:39 20.9 °C 19.5 °C 1013.1 hPa OSO 1.8 km/h   92% 0.0 mm
08:44 21.2 °C 19.8 °C 1013.1 hPa Calm     92% 0.0 mm
08:49 21.3 °C 19.7 °C 1013.2 hPa SE 0.4 km/h 9.5 km/h 90.6% 0.0 mm
08:54 21.4 °C 19.5 °C 1013.2 hPa SE 2.2 km/h 9.7 km/h 89.3% 0.0 mm
08:59 21.3 °C 19.5 °C 1013.2 hPa SSE 3.1 km/h 9.7 km/h 89.5% 0.0 mm
09:04 21.3 °C 19.6 °C 1013.4 hPa SSE 5.8 km/h 8 km/h 90% 0.0 mm
09:09 21.3 °C 19.6 °C 1013.4 hPa SSE 5.6 km/h 8.4 km/h 90% 0.0 mm
09:14 21.3 °C 19.6 °C 1013.4 hPa SSE 5 km/h 8 km/h 90% 0.0 mm
09:19 21.4 °C 19.6 °C 1013.5 hPa SSE 5 km/h 9.5 km/h 89.3% 0.0 mm
09:24 21.6 °C 19.8 °C 1013.5 hPa Sur 5 km/h 9.7 km/h 89% 0.0 mm
09:29 21.8 °C 19.9 °C 1013.5 hPa Sur 4.6 km/h 9.7 km/h 88.7% 0.0 mm
09:34 22.1 °C 19.8 °C 1013.5 hPa SO 3.2 km/h 7.4 km/h 87.3% 0.0 mm
09:39 22.2 °C 19.6 °C 1013.5 hPa SO 3.2 km/h 8 km/h 85.2% 0.0 mm
09:44 22.5 °C 19.5 °C 1013.5 hPa ONO 2.9 km/h 8.4 km/h 83.2% 0.0 mm
09:49 22.7 °C 19.7 °C 1013.6 hPa NO 3.1 km/h 8 km/h 83% 0.0 mm
09:54 22.8 °C 19.3 °C 1013.6 hPa Oeste 3.9 km/h 8.4 km/h 80.7% 0.0 mm
09:59 23 °C 19.3 °C 1013.6 hPa ONO 4.1 km/h 8.4 km/h 80% 0.0 mm
10:04 23.1 °C 19.4 °C 1013.7 hPa Oeste 5 km/h 8.7 km/h 79.4% 0.0 mm
10:09 23.2 °C 19.2 °C 1013.7 hPa OSO 5 km/h 9.7 km/h 78.2% 0.0 mm
10:14 23.3 °C 19.2 °C 1013.7 hPa ONO 5 km/h 9.7 km/h 78% 0.0 mm
10:19 23.4 °C 19.3 °C 1013.8 hPa ONO 4.9 km/h 10 km/h 78% 0.0 mm
10:24 23.6 °C 19.3 °C 1013.8 hPa Oeste 4.7 km/h 10 km/h 76.6% 0.0 mm
10:29 23.7 °C 19.1 °C 1013.8 hPa SO 5 km/h 10 km/h 75.1% 0.0 mm
10:34 23.9 °C 19 °C 1014.0 hPa SO 6.4 km/h 9.7 km/h 74.2% 0.0 mm
10:39 24 °C 19.1 °C 1014.0 hPa OSO 6.2 km/h 9.7 km/h 73.9% 0.0 mm
10:44 24.2 °C 19.2 °C 1014.0 hPa OSO 5 km/h 11.1 km/h 73.5% 0.0 mm
10:49 24.3 °C 19.1 °C 1014.1 hPa Oeste 5 km/h 11.3 km/h 72.5% 0.0 mm
10:54 24.4 °C 19 °C 1014.1 hPa Oeste 5 km/h 11.1 km/h 72% 0.0 mm
10:59 24.5 °C 19.2 °C 1014.1 hPa Oeste 5 km/h 11.3 km/h 72.6% 0.0 mm
11:04 24.7 °C 19.5 °C 1014.1 hPa OSO 5 km/h 11.1 km/h 72.9% 0.0 mm
11:09 24.9 °C 19.4 °C 1014.1 hPa SO 4.9 km/h 11.3 km/h 71.7% 0.0 mm
11:14 25.1 °C 19.4 °C 1014.1 hPa SO 4.7 km/h 9.7 km/h 70.6% 0.0 mm
11:19 25.2 °C 19.4 °C 1014.2 hPa SO 4.9 km/h 9.7 km/h 70.4% 0.0 mm
11:24 25.3 °C 19.4 °C 1014.2 hPa OSO 5.8 km/h 9.7 km/h 70% 0.0 mm
11:29 25.5 °C 19.5 °C 1014.2 hPa OSO 5.1 km/h 11.1 km/h 69.3% 0.0 mm
11:34 25.8 °C 19.1 °C 1014.2 hPa Oeste 2.2 km/h 11.3 km/h 66.7% 0.0 mm
11:39 25.9 °C 19.2 °C 1014.2 hPa OSO 2.8 km/h 10 km/h 66.5% 0.0 mm
11:44 26.1 °C 19.2 °C 1014.2 hPa Oeste 5 km/h 9.7 km/h 65.9% 0.0 mm
11:49 26.3 °C 19.2 °C 1014.2 hPa OSO 4.8 km/h 9.5 km/h 65% 0.0 mm
11:54 26.4 °C 19.3 °C 1014.1 hPa ONO 3.9 km/h 10.3 km/h 65% 0.0 mm
11:59 26.6 °C 19.4 °C 1014.1 hPa NO 3.9 km/h 9.7 km/h 64.9% 0.0 mm
12:04 26.8 °C 19.5 °C 1014.1 hPa Sur 3.9 km/h 9.5 km/h 64% 0.0 mm
12:09 27.1 °C 19.5 °C 1014.0 hPa ESE 4 km/h 9.7 km/h 63.3% 0.0 mm
12:14 27.3 °C 19.4 °C 1014.0 hPa Sur 4.7 km/h 11.1 km/h 62.1% 0.0 mm
12:19 27.3 °C 19.3 °C 1014.0 hPa SSE 4.9 km/h 11.3 km/h 62% 0.0 mm
12:24 27.3 °C 19.3 °C 1014.0 hPa SE 5.8 km/h 8 km/h 62% 0.0 mm
12:29 27.4 °C 19.4 °C 1014.0 hPa OSO 5.3 km/h 8 km/h 61.8% 0.0 mm
12:34 27.6 °C 19.5 °C 1014.0 hPa SSE 3.2 km/h 8 km/h 61.1% 0.0 mm
12:39 27.8 °C 19.5 °C 1013.9 hPa Este 3.3 km/h 8 km/h 60.6% 0.0 mm
12:44 28 °C 19.4 °C 1013.9 hPa NNE 3.9 km/h 9.5 km/h 59.8% 0.0 mm
12:49 28.1 °C 19.1 °C 1013.9 hPa NNO 4.1 km/h 9.7 km/h 58.2% 0.0 mm
12:54 28.1 °C 19.3 °C 1013.9 hPa NE 5 km/h 9.7 km/h 59% 0.0 mm
12:59 28.3 °C 19.3 °C 1013.9 hPa ENE 4.7 km/h 10 km/h 58.3% 0.0 mm
13:04 28.4 °C 19.1 °C 1013.9 hPa Este 3.9 km/h 9.7 km/h 57% 0.0 mm
13:09 28.4 °C 18.9 °C 1013.7 hPa SSE 4.2 km/h 11.1 km/h 56.3% 0.0 mm
13:14 28.5 °C 19.1 °C 1013.7 hPa ESE 5.8 km/h 11.3 km/h 56.9% 0.0 mm
13:19 28.6 °C 19.3 °C 1013.7 hPa North 5.4 km/h 9.7 km/h 57% 0.0 mm
13:24 28.7 °C 19.4 °C 1013.7 hPa NE 3.9 km/h 11.9 km/h 57.2% 0.0 mm
13:29 28.7 °C 19.4 °C 1013.7 hPa Este 4.3 km/h 11.3 km/h 57.4% 0.0 mm
13:34 28.6 °C 19.2 °C 1013.7 hPa ENE 6.4 km/h 11.3 km/h 56.9% 0.0 mm
13:39 28.7 °C 18.7 °C 1013.6 hPa Este 6.1 km/h 9.7 km/h 54.7% 0.0 mm
13:44 28.8 °C 18.7 °C 1013.6 hPa ENE 4.7 km/h 11.9 km/h 54.4% 0.0 mm
13:49 28.8 °C 18.2 °C 1013.6 hPa NE 5.1 km/h 16.7 km/h 52.8% 0.0 mm
13:54 28.8 °C 17.7 °C 1013.5 hPa NNE 6.9 km/h 16.1 km/h 51% 0.0 mm
13:59 28.9 °C 17.6 °C 1013.5 hPa North 6.7 km/h 11.1 km/h 50.4% 0.0 mm
14:04 29.1 °C 18.1 °C 1013.5 hPa NO 5.8 km/h 11.3 km/h 51.6% 0.0 mm
14:09 29.2 °C 18.2 °C 1013.4 hPa NE 5.9 km/h 13 km/h 51.7% 0.0 mm
14:14 29.1 °C 17.9 °C 1013.4 hPa NNE 6.4 km/h 12.9 km/h 50.8% 0.0 mm
14:19 29.2 °C 17.9 °C 1013.4 hPa NNE 6.5 km/h 13 km/h 50.7% 0.0 mm
14:24 29.3 °C 17.5 °C 1013.3 hPa NNO 6.9 km/h 12.9 km/h 49.1% 0.0 mm
14:29 29.3 °C 18.1 °C 1013.3 hPa North 6.8 km/h 11.3 km/h 50.9% 0.0 mm
14:34 29.2 °C 18.5 °C 1013.3 hPa NE 6.5 km/h 14.8 km/h 52.5% 0.0 mm
14:39 29.3 °C 18.2 °C 1013.2 hPa NE 6.7 km/h 14.8 km/h 51.2% 0.0 mm
14:44 29.4 °C 17.7 °C 1013.2 hPa Este 7.6 km/h 14.8 km/h 49.5% 0.0 mm
14:49 29.5 °C 17.5 °C 1013.2 hPa NE 7.4 km/h 14.5 km/h 48.7% 0.0 mm
14:54 29.7 °C 17.1 °C 1013.1 hPa North 6.5 km/h 13.7 km/h 46.8% 0.0 mm
14:59 29.7 °C 17.4 °C 1013.1 hPa NE 6.6 km/h 14.5 km/h 47.5% 0.0 mm
15:04 29.8 °C 17.6 °C 1013.1 hPa NE 6.9 km/h 14.5 km/h 48% 0.0 mm
15:09 29.8 °C 17.4 °C 1012.9 hPa ENE 7.1 km/h 14.8 km/h 47.7% 0.0 mm
15:14 29.7 °C 17.5 °C 1012.9 hPa Este 7.6 km/h 14.5 km/h 48.1% 0.0 mm
15:19 29.7 °C 17.1 °C 1012.9 hPa Este 7.3 km/h 11.3 km/h 46.7% 0.0 mm
15:24 29.8 °C 17.5 °C 1012.8 hPa NNE 5.8 km/h 16.1 km/h 47.8% 0.0 mm
15:29 29.8 °C 17.3 °C 1012.8 hPa NE 6 km/h 16.1 km/h 47.1% 0.0 mm
15:34 29.9 °C 17.1 °C 1012.8 hPa NE 6.9 km/h 13 km/h 46.3% 0.0 mm
15:39 30 °C 17 °C 1012.7 hPa Este 6.8 km/h 16.1 km/h 45.7% 0.0 mm
15:44 30 °C 17.2 °C 1012.7 hPa North 6.5 km/h 16.7 km/h 46.3% 0.0 mm
15:49 30 °C 17.6 °C 1012.7 hPa NE 6.5 km/h 14.5 km/h 47.3% 0.0 mm
15:54 30.1 °C 17.1 °C 1012.5 hPa NE 6.9 km/h 16.7 km/h 45.7% 0.0 mm
15:59 30.2 °C 17 °C 1012.5 hPa NE 7 km/h 16.1 km/h 45.1% 0.0 mm
16:04 30.2 °C 16.8 °C 1012.5 hPa NE 7.6 km/h 14.8 km/h 44.6% 0.0 mm
16:09 30.1 °C 16.9 °C 1012.5 hPa NE 7.4 km/h 14.5 km/h 45.3% 0.0 mm
16:14 30.2 °C 17.8 °C 1012.5 hPa NE 6.5 km/h 14.8 km/h 47.3% 0.0 mm
16:19 30.2 °C 18.1 °C 1012.5 hPa NE 6.8 km/h 14.5 km/h 48.5% 0.0 mm
16:24 30.2 °C 18.3 °C 1012.3 hPa NE 8.4 km/h 20.1 km/h 49% 0.0 mm
16:29 30.2 °C 18.1 °C 1012.3 hPa NE 8.4 km/h 20.9 km/h 48.3% 0.0 mm
16:34 30.1 °C 18.2 °C 1012.3 hPa NNE 8.7 km/h 17.2 km/h 49% 0.0 mm
16:39 30.1 °C 18.5 °C 1012.2 hPa NNE 8.9 km/h 17.7 km/h 49.8% 0.0 mm
16:44 30.1 °C 19.1 °C 1012.2 hPa NE 10 km/h 20.9 km/h 51.8% 0.0 mm
16:49 30 °C 19.4 °C 1012.2 hPa NE 10.2 km/h 20.9 km/h 52.9% 0.0 mm
16:54 29.8 °C 19.2 °C 1012.1 hPa NE 11.1 km/h 25.9 km/h 53% 0.0 mm
16:59 29.6 °C 19.2 °C 1012.1 hPa NE 11.7 km/h 25.7 km/h 53.5% 0.0 mm
17:04 29.6 °C 19.1 °C 1012.1 hPa NE 13.7 km/h 24.1 km/h 53.3% 0.0 mm
17:09 29.6 °C 19 °C 1012.0 hPa NNE 13.7 km/h 24.1 km/h 53.1% 0.0 mm
17:14 29.5 °C 19.1 °C 1012.0 hPa NE 13.7 km/h 24.1 km/h 53.5% 0.0 mm
17:19 29.4 °C 19.1 °C 1012.1 hPa NE 13.7 km/h 24.1 km/h 54.1% 0.0 mm
17:24 29.3 °C 19.2 °C 1012.1 hPa NE 14 km/h 24.1 km/h 54.6% 0.0 mm
17:29 29.2 °C 19.1 °C 1012.1 hPa NE 14.2 km/h 22.5 km/h 54.9% 0.0 mm
17:34 29.1 °C 19.2 °C 1012.1 hPa ENE 14.8 km/h 22.5 km/h 55.3% 0.0 mm
17:39 29.3 °C 19.3 °C 1012.0 hPa ENE 13.9 km/h 19.3 km/h 55.1% 0.0 mm
17:44 29.3 °C 19.2 °C 1012.0 hPa ENE 10 km/h 20.1 km/h 54.5% 0.0 mm
17:49 29.2 °C 19 °C 1012.0 hPa NE 10.2 km/h 20.9 km/h 54% 0.0 mm
17:54 29.2 °C 18.9 °C 1012.0 hPa NE 11.1 km/h 20.9 km/h 54% 0.0 mm
17:59 29.1 °C 18.9 °C 1012.0 hPa NE 11.3 km/h 20.9 km/h 54.2% 0.0 mm
18:04 29 °C 18.8 °C 1012.0 hPa NE 11.9 km/h 22.2 km/h 54.1% 0.0 mm
18:09 28.9 °C 18.8 °C 1012.0 hPa NE 12.1 km/h 22.5 km/h 54.5% 0.0 mm
18:14 28.9 °C 18.7 °C 1012.0 hPa NE 13 km/h 22.5 km/h 54.2% 0.0 mm
18:19 28.8 °C 18.3 °C 1012.0 hPa NE 13.1 km/h 22.5 km/h 53.2% 0.0 mm
18:24 28.7 °C 18.1 °C 1012.0 hPa NE 13.7 km/h 24.5 km/h 52.7% 0.0 mm
18:29 28.8 °C 17.9 °C 1012.0 hPa NE 13.6 km/h 24.1 km/h 52% 0.0 mm
18:34 28.8 °C 18 °C 1012.1 hPa NE 13 km/h 20.4 km/h 52.3% 0.0 mm
18:39 28.8 °C 18.3 °C 1012.1 hPa ENE 12.7 km/h 20.9 km/h 52.9% 0.0 mm
18:44 28.8 °C 18.7 °C 1012.1 hPa Este 11.1 km/h 19.3 km/h 54.2% 0.0 mm
18:49 28.8 °C 19.5 °C 1012.1 hPa Este 10.6 km/h 16.1 km/h 57.2% 0.0 mm
18:54 28.6 °C 19.6 °C 1012.1 hPa Este 8.7 km/h 14.8 km/h 58.1% 0.0 mm
18:59 28.3 °C 19.4 °C 1012.1 hPa Este 8.9 km/h 16.7 km/h 58.6% 0.0 mm
19:04 28.1 °C 19.4 °C 1012.2 hPa Este 9.5 km/h 16.7 km/h 59% 0.0 mm
19:09 27.9 °C 19.2 °C 1012.2 hPa Este 9.3 km/h 16.4 km/h 59.1% 0.0 mm
19:14 27.8 °C 19.4 °C 1012.2 hPa Este 8.7 km/h 16.7 km/h 60.1% 0.0 mm
19:19 27.8 °C 19.6 °C 1012.3 hPa Este 8.6 km/h 14.8 km/h 60.9% 0.0 mm
19:24 27.7 °C 19.6 °C 1012.3 hPa Este 8.4 km/h 14.8 km/h 61.5% 0.0 mm
19:29 27.6 °C 19.7 °C 1012.3 hPa Este 8.2 km/h 14.5 km/h 62.4% 0.0 mm
19:34 27.3 °C 19.7 °C 1012.4 hPa Este 7.6 km/h 14.5 km/h 63% 0.0 mm
19:39 27.3 °C 19.5 °C 1012.4 hPa ENE 7.4 km/h 14.8 km/h 62.6% 0.0 mm
19:44 27.2 °C 19.5 °C 1012.4 hPa ENE 6.9 km/h 14.5 km/h 62.9% 0.0 mm
19:49 27.1 °C 19.4 °C 1012.6 hPa ENE 6.7 km/h 12.2 km/h 63% 0.0 mm
19:54 26.9 °C 19.3 °C 1012.6 hPa ENE 5.8 km/h 13 km/h 63% 0.0 mm
19:59 26.7 °C 19.2 °C 1012.6 hPa NE 6.3 km/h 16.1 km/h 63.6% 0.0 mm
20:04 26.4 °C 19.1 °C 1012.7 hPa NE 8.4 km/h 16.7 km/h 64% 0.0 mm
20:09 26.3 °C 18.9 °C 1012.7 hPa NE 8.6 km/h 16.1 km/h 64% 0.0 mm
20:14 26.2 °C 18.9 °C 1012.7 hPa NNE 9.5 km/h 16.7 km/h 64.1% 0.0 mm
20:19 26.1 °C 19.1 °C 1013.0 hPa NNE 9.3 km/h 16.1 km/h 65.7% 0.0 mm
20:24 25.8 °C 19.3 °C 1013.0 hPa NE 8.7 km/h 15.6 km/h 67.5% 0.0 mm
20:29 25.6 °C 19.4 °C 1013.0 hPa NE 8.8 km/h 16.1 km/h 68.6% 0.0 mm
20:33 25.4 °C 19.5 °C 1013.0 hPa NE 9.5 km/h 14.5 km/h 69.7% 0.0 mm
21:24 24.3 °C 20.1 °C 1013.7 hPa NE 6.9 km/h 9.3 km/h 77.5% 0.0 mm
21:29 24.2 °C 20.1 °C 1013.7 hPa North 6.6 km/h 9.7 km/h 78% 0.0 mm
21:34 24.1 °C 20.3 °C 1013.8 hPa NNE 5 km/h 9.7 km/h 79% 0.0 mm
21:39 24.1 °C 20.3 °C 1013.8 hPa NNE 4.8 km/h 8 km/h 79.4% 0.0 mm
21:44 24 °C 20.3 °C 1013.8 hPa NNE 3.9 km/h 9.5 km/h 80% 0.0 mm
21:49 23.9 °C 20.3 °C 1013.9 hPa NE 4.1 km/h 11.1 km/h 80.6% 0.0 mm
21:53 23.8 °C 20.3 °C 1013.9 hPa NE 5 km/h 11.3 km/h 81% 0.0 mm
23:14 22.9 °C 20.4 °C 1014.3 hPa NNE 3.9 km/h 10 km/h 85.9% 0.0 mm
23:19 22.9 °C 20.5 °C 1014.3 hPa NE 4 km/h 9.7 km/h 86.4% 0.0 mm
23:24 22.8 °C 20.5 °C 1014.3 hPa NE 5 km/h 10.3 km/h 87% 0.0 mm
23:29 22.7 °C 20.5 °C 1014.3 hPa NE 5.2 km/h 11.3 km/h 87% 0.0 mm
23:34 22.7 °C 20.4 °C 1014.4 hPa NE 6.4 km/h 11.3 km/h 87% 0.0 mm
23:39 22.6 °C 20.4 °C 1014.4 hPa NE 6.3 km/h 9.7 km/h 87% 0.0 mm
23:44 22.6 °C 20.3 °C 1014.4 hPa NE 5.8 km/h 8 km/h 87% 0.0 mm
23:49 22.7 °C 20.4 °C 1014.4 hPa NE 5.3 km/h 5.6 km/h 87% 0.0 mm
23:54 22.7 °C 20.3 °C 1014.4 hPa NE 2.9 km/h 4.8 km/h 86.2% 0.0 mm
23:59 22.7 °C 20.2 °C 1014.4 hPa North 2.8 km/h 5.8 km/h 86% 0.0 mm
Murcia-Puente Tocinos, España
Compliments of Weather Underground - 3.25 mb

La estación de MeteoMurcia.com, publica sus datos en los siguientes proyectos:

Weather Underground PWS IMURCIAP2 Meteoclimatic www.awekas.at

W3Counter
Web Analytics